sensor_id;sensor_type;location;lat;lon;timestamp;pressure;altitude;pressure_sealevel;temperature;humidity
46347;BME280;32057;47.830;19.046;2023-05-14T00:00:10;100704.78;;;8.80;100.00
46347;BME280;32057;47.830;19.046;2023-05-14T00:02:36;100702.13;;;8.78;100.00
46347;BME280;32057;47.830;19.046;2023-05-14T00:05:02;100694.53;;;8.83;100.00
46347;BME280;32057;47.830;19.046;2023-05-14T00:07:27;100693.78;;;8.87;100.00
46347;BME280;32057;47.830;19.046;2023-05-14T00:09:55;100698.56;;;9.01;100.00
46347;BME280;32057;47.830;19.046;2023-05-14T00:12:21;100691.00;;;9.08;100.00
46347;BME280;32057;47.830;19.046;2023-05-14T00:14:46;100695.50;;;9.14;100.00
46347;BME280;32057;47.830;19.046;2023-05-14T00:17:12;100692.09;;;9.15;100.00
46347;BME280;32057;47.830;19.046;2023-05-14T00:19:37;100696.38;;;9.14;100.00
46347;BME280;32057;47.830;19.046;2023-05-14T00:22:06;100692.91;;;9.14;100.00
46347;BME280;32057;47.830;19.046;2023-05-14T00:24:32;100690.31;;;9.14;100.00
46347;BME280;32057;47.830;19.046;2023-05-14T00:26:57;100679.94;;;9.14;100.00
46347;BME280;32057;47.830;19.046;2023-05-14T00:29:22;100684.31;;;9.15;100.00
46347;BME280;32057;47.830;19.046;2023-05-14T00:31:48;100687.09;;;9.21;100.00
46347;BME280;32057;47.830;19.046;2023-05-14T00:34:13;100683.03;;;9.29;100.00
46347;BME280;32057;47.830;19.046;2023-05-14T00:36:38;100678.13;;;9.39;100.00
46347;BME280;32057;47.830;19.046;2023-05-14T00:39:04;100673.94;;;9.44;100.00
46347;BME280;32057;47.830;19.046;2023-05-14T00:41:29;100672.38;;;9.49;100.00
46347;BME280;32057;47.830;19.046;2023-05-14T00:43:55;100681.16;;;9.54;100.00
46347;BME280;32057;47.830;19.046;2023-05-14T00:46:21;100675.16;;;9.56;100.00
46347;BME280;32057;47.830;19.046;2023-05-14T00:48:46;100670.03;;;9.58;100.00
46347;BME280;32057;47.830;19.046;2023-05-14T00:51:12;100679.72;;;9.64;100.00
46347;BME280;32057;47.830;19.046;2023-05-14T00:53:38;100676.16;;;9.60;100.00
46347;BME280;32057;47.830;19.046;2023-05-14T00:56:04;100680.59;;;9.63;100.00
46347;BME280;32057;47.830;19.046;2023-05-14T00:58:29;100670.09;;;9.60;100.00
46347;BME280;32057;47.830;19.046;2023-05-14T01:00:55;100678.50;;;9.52;100.00
46347;BME280;32057;47.830;19.046;2023-05-14T01:03:20;100678.50;;;9.52;100.00
46347;BME280;32057;47.830;19.046;2023-05-14T01:06:03;100675.84;;;9.49;100.00
46347;BME280;32057;47.830;19.046;2023-05-14T01:08:48;100676.81;;;9.53;100.00
46347;BME280;32057;47.830;19.046;2023-05-14T01:11:25;100670.69;;;9.51;100.00
46347;BME280;32057;47.830;19.046;2023-05-14T01:16:47;100661.31;;;9.56;100.00
46347;BME280;32057;47.830;19.046;2023-05-14T01:19:36;100657.03;;;9.58;100.00
46347;BME280;32057;47.830;19.046;2023-05-14T01:22:03;100656.97;;;9.56;100.00
46347;BME280;32057;47.830;19.046;2023-05-14T01:24:29;100659.56;;;9.55;100.00
46347;BME280;32057;47.830;19.046;2023-05-14T01:30:18;100640.41;;;9.51;100.00
46347;BME280;32057;47.830;19.046;2023-05-14T01:32:49;100642.13;;;9.51;100.00
46347;BME280;32057;47.830;19.046;2023-05-14T01:35:16;100634.22;;;9.48;100.00
46347;BME280;32057;47.830;19.046;2023-05-14T01:37:43;100638.72;;;9.53;100.00
46347;BME280;32057;47.830;19.046;2023-05-14T01:40:09;100636.94;;;9.52;100.00
46347;BME280;32057;47.830;19.046;2023-05-14T01:42:36;100641.38;;;9.55;100.00
46347;BME280;32057;47.830;19.046;2023-05-14T01:45:02;100637.84;;;9.53;100.00
46347;BME280;32057;47.830;19.046;2023-05-14T01:47:28;100635.28;;;9.54;100.00
46347;BME280;32057;47.830;19.046;2023-05-14T01:49:53;100635.19;;;9.51;100.00
46347;BME280;32057;47.830;19.046;2023-05-14T01:52:19;100629.16;;;9.52;100.00
46347;BME280;32057;47.830;19.046;2023-05-14T01:54:46;100618.75;;;9.51;100.00
46347;BME280;32057;47.830;19.046;2023-05-14T01:57:11;100609.13;;;9.48;100.00
46347;BME280;32057;47.830;19.046;2023-05-14T01:59:37;100610.78;;;9.46;100.00
46347;BME280;32057;47.830;19.046;2023-05-14T02:02:02;100607.31;;;9.46;100.00
46347;BME280;32057;47.830;19.046;2023-05-14T02:04:28;100603.75;;;9.42;100.00
46347;BME280;32057;47.830;19.046;2023-05-14T02:06:53;100596.75;;;9.40;100.00
46347;BME280;32057;47.830;19.046;2023-05-14T02:09:18;100595.88;;;9.39;100.00
46347;BME280;32057;47.830;19.046;2023-05-14T02:11:44;100594.16;;;9.40;100.00
46347;BME280;32057;47.830;19.046;2023-05-14T02:14:10;100594.16;;;9.40;100.00
46347;BME280;32057;47.830;19.046;2023-05-14T02:16:35;100593.38;;;9.42;100.00
46347;BME280;32057;47.830;19.046;2023-05-14T02:19:01;100596.81;;;9.41;100.00
46347;BME280;32057;47.830;19.046;2023-05-14T02:21:26;100591.75;;;9.46;100.00
46347;BME280;32057;47.830;19.046;2023-05-14T02:23:52;100587.41;;;9.45;100.00
46347;BME280;32057;47.830;19.046;2023-05-14T02:26:17;100582.28;;;9.48;100.00
46347;BME280;32057;47.830;19.046;2023-05-14T02:28:42;100591.00;;;9.50;100.00
46347;BME280;32057;47.830;19.046;2023-05-14T02:31:08;100580.59;;;9.50;100.00
46347;BME280;32057;47.830;19.046;2023-05-14T02:33:34;100587.59;;;9.52;100.00
46347;BME280;32057;47.830;19.046;2023-05-14T02:35:59;100590.28;;;9.55;100.00
46347;BME280;32057;47.830;19.046;2023-05-14T02:38:25;100585.84;;;9.51;100.00
46347;BME280;32057;47.830;19.046;2023-05-14T02:40:50;100586.66;;;9.49;100.00
46347;BME280;32057;47.830;19.046;2023-05-14T02:43:16;100584.81;;;9.45;100.00
46347;BME280;32057;47.830;19.046;2023-05-14T02:45:41;100587.41;;;9.46;100.00
46347;BME280;32057;47.830;19.046;2023-05-14T02:48:07;100596.13;;;9.47;100.00
46347;BME280;32057;47.830;19.046;2023-05-14T02:50:32;100590.94;;;9.48;100.00
46347;BME280;32057;47.830;19.046;2023-05-14T02:52:58;100587.59;;;9.52;100.00
46347;BME280;32057;47.830;19.046;2023-05-14T02:55:23;100581.56;;;9.53;100.00
46347;BME280;32057;47.830;19.046;2023-05-14T02:57:50;100583.13;;;9.47;100.00
46347;BME280;32057;47.830;19.046;2023-05-14T03:00:17;100573.50;;;9.44;100.00
46347;BME280;32057;47.830;19.046;2023-05-14T03:02:43;100568.19;;;9.40;100.00
46347;BME280;32057;47.830;19.046;2023-05-14T03:05:08;100558.59;;;9.37;100.00
46347;BME280;32057;47.830;19.046;2023-05-14T03:07:34;100558.56;;;9.35;100.00
46347;BME280;32057;47.830;19.046;2023-05-14T03:09:59;100558.44;;;9.32;100.00
46347;BME280;32057;47.830;19.046;2023-05-14T03:12:25;100560.97;;;9.29;100.00
46347;BME280;32057;47.830;19.046;2023-05-14T03:14:51;100564.38;;;9.28;100.00
46347;BME280;32057;47.830;19.046;2023-05-14T03:17:16;100564.56;;;9.34;100.00
46347;BME280;32057;47.830;19.046;2023-05-14T03:19:41;100556.66;;;9.30;100.00
46347;BME280;32057;47.830;19.046;2023-05-14T03:22:07;100564.38;;;9.28;100.00
46347;BME280;32057;47.830;19.046;2023-05-14T03:24:33;100568.00;;;9.33;100.00
46347;BME280;32057;47.830;19.046;2023-05-14T03:26:59;100560.09;;;9.29;100.00
46347;BME280;32057;47.830;19.046;2023-05-14T03:29:24;100560.28;;;9.36;100.00
46347;BME280;32057;47.830;19.046;2023-05-14T03:31:50;100575.81;;;9.33;100.00
46347;BME280;32057;47.830;19.046;2023-05-14T03:34:15;100565.25;;;9.27;100.00
46347;BME280;32057;47.830;19.046;2023-05-14T03:36:41;100569.75;;;9.33;100.00
46347;BME280;32057;47.830;19.046;2023-05-14T03:39:06;100571.34;;;9.29;100.00
46347;BME280;32057;47.830;19.046;2023-05-14T03:41:33;100568.72;;;9.28;100.00
46347;BME280;32057;47.830;19.046;2023-05-14T03:43:59;100566.97;;;9.27;100.00
46347;BME280;32057;47.830;19.046;2023-05-14T03:46:24;100557.44;;;9.27;100.00
46347;BME280;32057;47.830;19.046;2023-05-14T03:48:49;100554.81;;;9.26;100.00
46347;BME280;32057;47.830;19.046;2023-05-14T03:51:15;100560.97;;;9.29;100.00
46347;BME280;32057;47.830;19.046;2023-05-14T03:53:40;100560.84;;;9.25;100.00
46347;BME280;32057;47.830;19.046;2023-05-14T03:56:06;100562.53;;;9.23;100.00
46347;BME280;32057;47.830;19.046;2023-05-14T03:58:31;100564.22;;;9.22;100.00
46347;BME280;32057;47.830;19.046;2023-05-14T04:00:57;100573.91;;;9.28;100.00
46347;BME280;32057;47.830;19.046;2023-05-14T04:03:22;100574.06;;;9.34;100.00
46347;BME280;32057;47.830;19.046;2023-05-14T04:05:47;100559.38;;;9.34;100.00
46347;BME280;32057;47.830;19.046;2023-05-14T04:08:13;100557.69;;;9.36;100.00
46347;BME280;32057;47.830;19.046;2023-05-14T04:10:38;100557.81;;;9.40;100.00
46347;BME280;32057;47.830;19.046;2023-05-14T04:13:04;100555.38;;;9.46;100.00
46347;BME280;32057;47.830;19.046;2023-05-14T04:15:29;100552.78;;;9.46;100.00
46347;BME280;32057;47.830;19.046;2023-05-14T04:17:54;100559.81;;;9.50;100.00
46347;BME280;32057;47.830;19.046;2023-05-14T04:20:20;100556.41;;;9.52;100.00
46347;BME280;32057;47.830;19.046;2023-05-14T04:22:45;100559.88;;;9.51;100.00
46347;BME280;32057;47.830;19.046;2023-05-14T04:25:11;100558.25;;;9.55;100.00
46347;BME280;32057;47.830;19.046;2023-05-14T04:27:36;100560.09;;;9.59;100.00
46347;BME280;32057;47.830;19.046;2023-05-14T04:30:02;100563.59;;;9.61;100.00
46347;BME280;32057;47.830;19.046;2023-05-14T04:32:27;100562.91;;;9.67;100.00
46347;BME280;32057;47.830;19.046;2023-05-14T04:34:54;100555.09;;;9.67;100.00
46347;BME280;32057;47.830;19.046;2023-05-14T04:37:20;100554.22;;;9.66;100.00
46347;BME280;32057;47.830;19.046;2023-05-14T04:39:45;100541.22;;;9.66;100.00
46347;BME280;32057;47.830;19.046;2023-05-14T04:42:10;100542.19;;;9.70;100.00
46347;BME280;32057;47.830;19.046;2023-05-14T04:44:36;100539.63;;;9.71;100.00
46347;BME280;32057;47.830;19.046;2023-05-14T04:47:02;100543.88;;;9.68;100.00
46347;BME280;32057;47.830;19.046;2023-05-14T04:49:28;100550.78;;;9.67;100.00
46347;BME280;32057;47.830;19.046;2023-05-14T04:51:53;100557.78;;;9.70;100.00
46347;BME280;32057;47.830;19.046;2023-05-14T04:54:19;100556.97;;;9.72;100.00
46347;BME280;32057;47.830;19.046;2023-05-14T04:56:44;100560.50;;;9.74;100.00
46347;BME280;32057;47.830;19.046;2023-05-14T04:59:10;100570.88;;;9.74;100.00
46347;BME280;32057;47.830;19.046;2023-05-14T05:01:35;100567.41;;;9.74;100.00
46347;BME280;32057;47.830;19.046;2023-05-14T05:04:01;100561.25;;;9.70;100.00
46347;BME280;32057;47.830;19.046;2023-05-14T05:06:26;100548.31;;;9.72;100.00
46347;BME280;32057;47.830;19.046;2023-05-14T05:08:52;100543.09;;;9.72;100.00
46347;BME280;32057;47.830;19.046;2023-05-14T05:11:17;100536.28;;;9.75;100.00
46347;BME280;32057;47.830;19.046;2023-05-14T05:13:42;100541.38;;;9.72;100.00
46347;BME280;32057;47.830;19.046;2023-05-14T05:16:08;100534.50;;;9.74;100.00
46347;BME280;32057;47.830;19.046;2023-05-14T05:18:33;100525.78;;;9.72;100.00
46347;BME280;32057;47.830;19.046;2023-05-14T05:20:59;100531.09;;;9.75;100.00
46347;BME280;32057;47.830;19.046;2023-05-14T05:23:24;100525.16;;;9.81;100.00
46347;BME280;32057;47.830;19.046;2023-05-14T05:25:50;100520.94;;;9.85;100.00
46347;BME280;32057;47.830;19.046;2023-05-14T05:28:15;100530.47;;;9.86;100.00
46347;BME280;32057;47.830;19.046;2023-05-14T05:30:41;100522.69;;;9.86;100.00
46347;BME280;32057;47.830;19.046;2023-05-14T05:33:09;100526.25;;;9.89;100.00
46347;BME280;32057;47.830;19.046;2023-05-14T05:35:34;100526.38;;;9.94;100.00
46347;BME280;32057;47.830;19.046;2023-05-14T05:38:00;100528.13;;;9.95;100.00
46347;BME280;32057;47.830;19.046;2023-05-14T05:40:25;100529.06;;;9.97;100.00
46347;BME280;32057;47.830;19.046;2023-05-14T05:42:51;100530.78;;;9.96;100.00
46347;BME280;32057;47.830;19.046;2023-05-14T05:45:16;100525.66;;;10.00;100.00
46347;BME280;32057;47.830;19.046;2023-05-14T05:47:41;100525.66;;;10.00;100.00
46347;BME280;32057;47.830;19.046;2023-05-14T05:50:07;100536.13;;;10.03;100.00
46347;BME280;32057;47.830;19.046;2023-05-14T05:52:33;100530.03;;;10.02;100.00
46347;BME280;32057;47.830;19.046;2023-05-14T05:54:59;100524.84;;;10.02;100.00
46347;BME280;32057;47.830;19.046;2023-05-14T05:57:25;100526.66;;;10.05;100.00
46347;BME280;32057;47.830;19.046;2023-05-14T05:59:51;100524.97;;;10.07;100.00
46347;BME280;32057;47.830;19.046;2023-05-14T06:02:18;100524.94;;;10.05;100.00
46347;BME280;32057;47.830;19.046;2023-05-14T06:04:43;100525.81;;;10.06;100.00
46347;BME280;32057;47.830;19.046;2023-05-14T06:07:08;100525.84;;;10.07;100.00
46347;BME280;32057;47.830;19.046;2023-05-14T06:09:34;100523.34;;;10.12;100.00
46347;BME280;32057;47.830;19.046;2023-05-14T06:11:59;100530.19;;;10.08;100.00
46347;BME280;32057;47.830;19.046;2023-05-14T06:14:25;100524.13;;;10.08;100.00
46347;BME280;32057;47.830;19.046;2023-05-14T06:16:50;100525.84;;;10.07;100.00
46347;BME280;32057;47.830;19.046;2023-05-14T06:19:15;100527.78;;;10.14;100.00
46347;BME280;32057;47.830;19.046;2023-05-14T06:21:41;100528.69;;;10.16;100.00
46347;BME280;32057;47.830;19.046;2023-05-14T06:24:06;100537.47;;;10.22;100.00
46347;BME280;32057;47.830;19.046;2023-05-14T06:26:32;100539.25;;;10.23;100.00
46347;BME280;32057;47.830;19.046;2023-05-14T06:28:57;100533.28;;;10.27;100.00
46347;BME280;32057;47.830;19.046;2023-05-14T06:31:23;100534.16;;;10.27;100.00
46347;BME280;32057;47.830;19.046;2023-05-14T06:33:48;100532.41;;;10.28;100.00
46347;BME280;32057;47.830;19.046;2023-05-14T06:36:14;100535.03;;;10.28;100.00
46347;BME280;32057;47.830;19.046;2023-05-14T06:38:39;100531.72;;;10.33;100.00
46347;BME280;32057;47.830;19.046;2023-05-14T06:41:04;100535.28;;;10.37;100.00
46347;BME280;32057;47.830;19.046;2023-05-14T06:43:30;100529.31;;;10.41;100.00
46347;BME280;32057;47.830;19.046;2023-05-14T06:45:55;100525.81;;;10.39;100.00
46347;BME280;32057;47.830;19.046;2023-05-14T06:48:21;100524.88;;;10.37;100.00
46347;BME280;32057;47.830;19.046;2023-05-14T06:50:47;100520.59;;;10.39;100.00
46347;BME280;32057;47.830;19.046;2023-05-14T06:53:13;100525.03;;;10.43;100.00
46347;BME280;32057;47.830;19.046;2023-05-14T06:55:39;100524.16;;;10.43;100.00
46347;BME280;32057;47.830;19.046;2023-05-14T06:58:05;100515.53;;;10.45;100.00
46347;BME280;32057;47.830;19.046;2023-05-14T07:00:31;100511.28;;;10.49;100.00
46347;BME280;32057;47.830;19.046;2023-05-14T07:02:56;100519.28;;;10.56;100.00
46347;BME280;32057;47.830;19.046;2023-05-14T07:05:22;100506.31;;;10.60;100.00
46347;BME280;32057;47.830;19.046;2023-05-14T07:07:47;100509.16;;;10.69;100.00
46347;BME280;32057;47.830;19.046;2023-05-14T07:10:12;100501.34;;;10.69;100.00
46347;BME280;32057;47.830;19.046;2023-05-14T07:12:38;100510.94;;;10.71;100.00
46347;BME280;32057;47.830;19.046;2023-05-14T07:15:04;100501.53;;;10.76;100.00
46347;BME280;32057;47.830;19.046;2023-05-14T07:17:29;100499.06;;;10.84;100.00
46347;BME280;32057;47.830;19.046;2023-05-14T07:19:55;100505.34;;;10.94;100.00
46347;BME280;32057;47.830;19.046;2023-05-14T07:22:21;100504.66;;;11.01;100.00
46347;BME280;32057;47.830;19.046;2023-05-14T07:24:46;100503.88;;;11.05;100.00
46347;BME280;32057;47.830;19.046;2023-05-14T07:27:11;100501.31;;;11.07;100.00
46347;BME280;32057;47.830;19.046;2023-05-14T07:29:37;100487.38;;;11.06;100.00
46347;BME280;32057;47.830;19.046;2023-05-14T07:32:03;100482.28;;;11.11;100.00
46347;BME280;32057;47.830;19.046;2023-05-14T07:34:28;100488.31;;;11.10;100.00
46347;BME280;32057;47.830;19.046;2023-05-14T07:36:54;100485.00;;;11.17;100.00
46347;BME280;32057;47.830;19.046;2023-05-14T07:39:20;100475.53;;;11.22;100.00
46347;BME280;32057;47.830;19.046;2023-05-14T07:41:46;100477.41;;;11.28;100.00
46347;BME280;32057;47.830;19.046;2023-05-14T07:44:11;100473.94;;;11.27;100.00
46347;BME280;32057;47.830;19.046;2023-05-14T07:46:37;100468.84;;;11.33;100.00
46347;BME280;32057;47.830;19.046;2023-05-14T07:49:02;100475.03;;;11.39;100.00
46347;BME280;32057;47.830;19.046;2023-05-14T07:51:28;100476.09;;;11.50;100.00
46347;BME280;32057;47.830;19.046;2023-05-14T07:53:54;100473.63;;;11.57;100.00
46347;BME280;32057;47.830;19.046;2023-05-14T07:56:22;100464.97;;;11.59;100.00
46347;BME280;32057;47.830;19.046;2023-05-14T07:58:48;100465.88;;;11.62;100.00
46347;BME280;32057;47.830;19.046;2023-05-14T08:01:14;100457.31;;;11.66;100.00
46347;BME280;32057;47.830;19.046;2023-05-14T08:03:40;100457.22;;;11.63;100.00
46347;BME280;32057;47.830;19.046;2023-05-14T08:06:05;100454.69;;;11.66;100.00
46347;BME280;32057;47.830;19.046;2023-05-14T08:08:30;100445.28;;;11.74;100.00
46347;BME280;32057;47.830;19.046;2023-05-14T08:10:56;100449.69;;;11.80;100.00
46347;BME280;32057;47.830;19.046;2023-05-14T08:13:21;100438.47;;;11.83;100.00
46347;BME280;32057;47.830;19.046;2023-05-14T08:15:48;100441.09;;;11.84;100.00
46347;BME280;32057;47.830;19.046;2023-05-14T08:18:13;100438.59;;;11.89;100.00
46347;BME280;32057;47.830;19.046;2023-05-14T08:20:39;100431.75;;;11.95;100.00
46347;BME280;32057;47.830;19.046;2023-05-14T08:23:04;100427.44;;;11.98;100.00
46347;BME280;32057;47.830;19.046;2023-05-14T08:25:31;100421.50;;;12.06;100.00
46347;BME280;32057;47.830;19.046;2023-05-14T08:27:57;100424.19;;;12.12;100.00
46347;BME280;32057;47.830;19.046;2023-05-14T08:30:24;100417.28;;;12.14;100.00
46347;BME280;32057;47.830;19.046;2023-05-14T08:32:49;100420.84;;;12.21;100.00
46347;BME280;32057;47.830;19.046;2023-05-14T08:35:16;100420.00;;;12.24;100.00
46347;BME280;32057;47.830;19.046;2023-05-14T08:37:42;100408.78;;;12.29;100.00
46347;BME280;32057;47.830;19.046;2023-05-14T08:40:08;100412.34;;;12.34;100.00
46347;BME280;32057;47.830;19.046;2023-05-14T08:42:34;100413.31;;;12.41;100.00
46347;BME280;32057;47.830;19.046;2023-05-14T08:45:02;100406.44;;;12.46;100.00
46347;BME280;32057;47.830;19.046;2023-05-14T08:47:30;100404.75;;;12.51;100.00
46347;BME280;32057;47.830;19.046;2023-05-14T08:50:03;100397.09;;;12.65;100.00
46347;BME280;32057;47.830;19.046;2023-05-14T08:52:30;100392.81;;;12.72;100.00
46347;BME280;32057;47.830;19.046;2023-05-14T08:54:57;100386.72;;;12.71;100.00
46347;BME280;32057;47.830;19.046;2023-05-14T08:57:25;100385.94;;;12.77;100.00
46347;BME280;32057;47.830;19.046;2023-05-14T08:59:51;100379.88;;;12.81;100.00
46347;BME280;32057;47.830;19.046;2023-05-14T09:02:20;100379.03;;;12.84;100.00
46347;BME280;32057;47.830;19.046;2023-05-14T09:04:47;100381.72;;;12.88;100.00
46347;BME280;32057;47.830;19.046;2023-05-14T09:07:14;100374.88;;;12.98;100.00
46347;BME280;32057;47.830;19.046;2023-05-14T09:09:40;100375.81;;;13.08;100.00
46347;BME280;32057;47.830;19.046;2023-05-14T09:12:06;100384.72;;;13.22;100.00
46347;BME280;32057;47.830;19.046;2023-05-14T09:14:31;100382.16;;;13.28;100.00
46347;BME280;32057;47.830;19.046;2023-05-14T09:16:57;100378.72;;;13.31;100.00
46347;BME280;32057;47.830;19.046;2023-05-14T09:19:23;100376.13;;;13.31;100.00
46347;BME280;32057;47.830;19.046;2023-05-14T09:21:49;100376.03;;;13.28;100.00
46347;BME280;32057;47.830;19.046;2023-05-14T09:24:23;100366.47;;;13.27;100.00
46347;BME280;32057;47.830;19.046;2023-05-14T09:26:51;100369.06;;;13.25;100.00
46347;BME280;32057;47.830;19.046;2023-05-14T09:29:17;100374.31;;;13.27;100.00
46347;BME280;32057;47.830;19.046;2023-05-14T09:31:43;100369.16;;;13.31;100.00
46347;BME280;32057;47.830;19.046;2023-05-14T09:34:08;100365.69;;;13.32;100.00
46347;BME280;32057;47.830;19.046;2023-05-14T09:36:33;100362.03;;;13.21;100.00
46347;BME280;32057;47.830;19.046;2023-05-14T09:38:59;100357.66;;;13.17;100.00
46347;BME280;32057;47.830;19.046;2023-05-14T09:41:25;100347.19;;;13.14;100.00
46347;BME280;32057;47.830;19.046;2023-05-14T09:43:50;100342.75;;;13.07;100.00
46347;BME280;32057;47.830;19.046;2023-05-14T09:46:16;100341.88;;;13.08;100.00
46347;BME280;32057;47.830;19.046;2023-05-14T09:48:42;100335.75;;;13.06;100.00
46347;BME280;32057;47.830;19.046;2023-05-14T09:51:08;100334.84;;;13.01;100.00
46347;BME280;32057;47.830;19.046;2023-05-14T09:53:34;100331.38;;;13.00;100.00
46347;BME280;32057;47.830;19.046;2023-05-14T09:56:00;100333.00;;;12.93;100.00
46347;BME280;32057;47.830;19.046;2023-05-14T09:58:25;100330.38;;;12.90;100.00
46347;BME280;32057;47.830;19.046;2023-05-14T10:00:51;100332.09;;;12.88;100.00
46347;BME280;32057;47.830;19.046;2023-05-14T10:03:19;100326.88;;;12.88;100.00
46347;BME280;32057;47.830;19.046;2023-05-14T10:05:47;100323.38;;;12.86;100.00
46347;BME280;32057;47.830;19.046;2023-05-14T10:10:43;100311.16;;;12.85;100.00
46347;BME280;32057;47.830;19.046;2023-05-14T10:13:12;100315.47;;;12.79;100.00
46347;BME280;32057;47.830;19.046;2023-05-14T10:15:48;100310.25;;;12.82;100.00
46347;BME280;32057;47.830;19.046;2023-05-14T10:18:18;100304.16;;;12.81;100.00
46347;BME280;32057;47.830;19.046;2023-05-14T10:21:03;100305.88;;;12.79;100.00
46347;BME280;32057;47.830;19.046;2023-05-14T10:23:30;100298.94;;;12.78;100.00
46347;BME280;32057;47.830;19.046;2023-05-14T10:25:56;100283.25;;;12.78;100.00
46347;BME280;32057;47.830;19.046;2023-05-14T10:28:23;100269.31;;;12.79;100.00
46347;BME280;32057;47.830;19.046;2023-05-14T10:30:49;100261.50;;;12.81;100.00
46347;BME280;32057;47.830;19.046;2023-05-14T10:33:15;100258.91;;;12.84;100.00
46347;BME280;32057;47.830;19.046;2023-05-14T10:36:06;100262.44;;;12.87;100.00
46347;BME280;32057;47.830;19.046;2023-05-14T10:38:35;100256.38;;;12.91;100.00
46347;BME280;32057;47.830;19.046;2023-05-14T10:41:04;100259.94;;;12.97;100.00
46347;BME280;32057;47.830;19.046;2023-05-14T10:43:35;100255.59;;;12.99;100.00
46347;BME280;32057;47.830;19.046;2023-05-14T10:46:01;100259.06;;;12.98;100.00
46347;BME280;32057;47.830;19.046;2023-05-14T10:48:27;100253.84;;;12.99;100.00
46347;BME280;32057;47.830;19.046;2023-05-14T10:50:55;100249.56;;;13.04;100.00
46347;BME280;32057;47.830;19.046;2023-05-14T10:53:31;100265.22;;;13.04;100.00
46347;BME280;32057;47.830;19.046;2023-05-14T10:56:01;100278.31;;;13.09;100.00
46347;BME280;32057;47.830;19.046;2023-05-14T10:58:29;100260.88;;;13.08;100.00
46347;BME280;32057;47.830;19.046;2023-05-14T11:00:58;100245.22;;;13.08;100.00
46347;BME280;32057;47.830;19.046;2023-05-14T11:03:28;100250.44;;;13.08;100.00
46347;BME280;32057;47.830;19.046;2023-05-14T11:05:54;100253.94;;;13.10;100.00
46347;BME280;32057;47.830;19.046;2023-05-14T11:08:20;100248.72;;;13.10;100.00
46347;BME280;32057;47.830;19.046;2023-05-14T11:10:48;100258.28;;;13.08;100.00
46347;BME280;32057;47.830;19.046;2023-05-14T11:13:14;100241.72;;;13.07;100.00
46347;BME280;32057;47.830;19.046;2023-05-14T11:15:41;100242.59;;;13.08;100.00
46347;BME280;32057;47.830;19.046;2023-05-14T11:18:25;100250.44;;;13.06;100.00
46347;BME280;32057;47.830;19.046;2023-05-14T11:20:50;100250.44;;;13.08;100.00
46347;BME280;32057;47.830;19.046;2023-05-14T11:23:16;100252.19;;;13.09;100.00
46347;BME280;32057;47.830;19.046;2023-05-14T11:25:42;100249.59;;;13.12;100.00
46347;BME280;32057;47.830;19.046;2023-05-14T11:28:07;100242.66;;;13.12;100.00
46347;BME280;32057;47.830;19.046;2023-05-14T11:30:33;100240.94;;;13.16;100.00
46347;BME280;32057;47.830;19.046;2023-05-14T11:32:59;100233.97;;;13.15;100.00
46347;BME280;32057;47.830;19.046;2023-05-14T11:35:24;100228.75;;;13.17;100.00
46347;BME280;32057;47.830;19.046;2023-05-14T11:37:50;100236.63;;;13.18;100.00
46347;BME280;32057;47.830;19.046;2023-05-14T11:40:17;100243.66;;;13.28;100.00
46347;BME280;32057;47.830;19.046;2023-05-14T11:42:42;100243.63;;;13.27;100.00
46347;BME280;32057;47.830;19.046;2023-05-14T11:45:12;100234.94;;;13.26;100.00
46347;BME280;32057;47.830;19.046;2023-05-14T11:47:39;100228.94;;;13.35;100.00
46347;BME280;32057;47.830;19.046;2023-05-14T11:50:05;100215.84;;;13.33;100.00
46347;BME280;32057;47.830;19.046;2023-05-14T11:52:30;100220.22;;;13.34;100.00
46347;BME280;32057;47.830;19.046;2023-05-14T11:55:01;100214.09;;;13.32;100.00
46347;BME280;32057;47.830;19.046;2023-05-14T11:57:26;100217.56;;;13.31;100.00
46347;BME280;32057;47.830;19.046;2023-05-14T11:59:55;100213.22;;;13.30;100.00
46347;BME280;32057;47.830;19.046;2023-05-14T12:02:25;100208.00;;;13.30;100.00
46347;BME280;32057;47.830;19.046;2023-05-14T12:04:52;100201.00;;;13.29;100.00
46347;BME280;32057;47.830;19.046;2023-05-14T12:07:17;100191.44;;;13.31;100.00
46347;BME280;32057;47.830;19.046;2023-05-14T12:09:45;100194.00;;;13.28;100.00
46347;BME280;32057;47.830;19.046;2023-05-14T12:12:17;100189.63;;;13.27;100.00
46347;BME280;32057;47.830;19.046;2023-05-14T12:14:43;100187.94;;;13.29;100.00
46347;BME280;32057;47.830;19.046;2023-05-14T12:17:21;100191.44;;;13.31;100.00
46347;BME280;32057;47.830;19.046;2023-05-14T12:19:48;100188.81;;;13.30;100.00
46347;BME280;32057;47.830;19.046;2023-05-14T12:22:16;100187.09;;;13.32;100.00
46347;BME280;32057;47.830;19.046;2023-05-14T12:24:43;100179.28;;;13.40;100.00
46347;BME280;32057;47.830;19.046;2023-05-14T12:27:16;100181.03;;;13.38;100.00
46347;BME280;32057;47.830;19.046;2023-05-14T12:29:42;100169.69;;;13.35;100.00
46347;BME280;32057;47.830;19.046;2023-05-14T12:32:08;100172.31;;;13.39;100.00
46347;BME280;32057;47.830;19.046;2023-05-14T12:34:37;100167.09;;;13.42;100.00
46347;BME280;32057;47.830;19.046;2023-05-14T12:37:02;100172.31;;;13.39;100.00
46347;BME280;32057;47.830;19.046;2023-05-14T12:39:31;100166.22;;;13.40;100.00